createdAt,value
2023-01-22T00:00:09.153Z,-0.43
2023-01-22T00:02:37.225Z,-0.40
2023-01-22T00:05:05.088Z,-0.34
2023-01-22T00:07:34.152Z,-0.28
2023-01-22T00:10:00.901Z,-0.46
2023-01-22T00:12:27.929Z,-0.38
2023-01-22T00:14:54.631Z,-0.38
2023-01-22T00:17:21.225Z,-0.42
2023-01-22T00:19:47.871Z,-0.28
2023-01-22T00:22:14.452Z,-0.41
2023-01-22T00:24:41.127Z,-0.40
2023-01-22T00:27:07.873Z,-0.40
2023-01-22T00:29:37.625Z,-0.37
2023-01-22T00:32:04.555Z,-0.40
2023-01-22T00:34:31.317Z,-0.37
2023-01-22T00:36:58.269Z,-0.33
2023-01-22T00:39:27.132Z,-0.34
2023-01-22T00:41:53.685Z,-0.38
2023-01-22T00:44:20.294Z,-0.34
2023-01-22T00:46:46.954Z,-0.39
2023-01-22T00:49:13.537Z,-0.40
2023-01-22T00:51:40.311Z,-0.41
2023-01-22T00:54:07.091Z,-0.30
2023-01-22T00:56:33.819Z,-0.32
2023-01-22T00:59:00.440Z,-0.43
2023-01-22T01:01:27.141Z,-0.48
2023-01-22T01:03:53.762Z,-0.33
2023-01-22T01:06:22.102Z,-0.38
2023-01-22T01:08:50.232Z,-0.37
2023-01-22T01:11:22.718Z,-0.27
2023-01-22T01:13:50.968Z,-0.30
2023-01-22T01:16:29.883Z,-0.38
2023-01-22T01:19:01.377Z,-0.37
2023-01-22T01:21:28.734Z,-0.31
2023-01-22T01:23:57.353Z,-0.37
2023-01-22T01:26:24.932Z,-0.43
2023-01-22T01:28:55.032Z,-0.48
2023-01-22T01:31:23.882Z,-0.53
2023-01-22T01:33:50.543Z,-0.46
2023-01-22T01:36:30.643Z,-0.47
2023-01-22T01:39:04.997Z,-0.33
2023-01-22T01:41:31.876Z,-0.35
2023-01-22T01:44:10.808Z,-0.36
2023-01-22T01:46:51.948Z,-0.24
2023-01-22T01:49:21.264Z,-0.40
2023-01-22T01:51:48.852Z,-0.55
2023-01-22T01:54:16.274Z,-0.40
2023-01-22T01:56:51.013Z,-0.34
2023-01-22T01:59:20.115Z,-0.54
2023-01-22T02:01:53.599Z,-0.53
2023-01-22T02:04:20.406Z,-0.54
2023-01-22T02:06:47.065Z,-0.54
2023-01-22T02:09:14.487Z,-0.44
2023-01-22T02:11:41.285Z,-0.59
2023-01-22T02:14:12.929Z,-0.65
2023-01-22T02:16:39.735Z,-0.67
2023-01-22T02:19:06.381Z,-0.69
2023-01-22T02:21:32.942Z,-0.64
2023-01-22T02:24:00.145Z,-0.66
2023-01-22T02:26:26.926Z,-0.83
2023-01-22T02:28:53.849Z,-0.92
2023-01-22T02:31:22.727Z,-0.90
2023-01-22T02:33:49.468Z,-1.10
2023-01-22T02:36:18.448Z,-1.11
2023-01-22T02:38:45.033Z,-1.17
2023-01-22T02:41:12.025Z,-1.10
2023-01-22T02:43:39.226Z,-1.07
2023-01-22T02:46:05.905Z,-0.99
2023-01-22T02:48:32.590Z,-1.01
2023-01-22T02:50:59.255Z,-0.94
2023-01-22T02:53:26.151Z,-0.97
2023-01-22T02:55:52.785Z,-1.02
2023-01-22T02:58:19.363Z,-1.02
2023-01-22T03:00:45.891Z,-0.97
2023-01-22T03:03:15.375Z,-1.01
2023-01-22T03:05:52.218Z,-1.15
2023-01-22T03:08:22.254Z,-1.08
2023-01-22T03:10:48.808Z,-1.10
2023-01-22T03:13:33.717Z,-1.12
2023-01-22T03:16:22.661Z,-1.15
2023-01-22T03:19:08.026Z,-1.30
2023-01-22T03:21:34.645Z,-1.29
2023-01-22T03:24:01.192Z,-1.21
2023-01-22T03:26:31.614Z,-1.25
2023-01-22T03:29:00.669Z,-1.28
2023-01-22T03:31:27.445Z,-1.17
2023-01-22T03:33:54.140Z,-1.09
2023-01-22T03:36:20.706Z,-1.09
2023-01-22T03:38:47.662Z,-1.03
2023-01-22T03:41:17.083Z,-1.04
2023-01-22T03:43:46.468Z,-0.96
2023-01-22T03:46:16.383Z,-0.91
2023-01-22T03:48:44.472Z,-0.97
2023-01-22T03:51:14.759Z,-0.96
2023-01-22T03:53:43.378Z,-0.99
2023-01-22T03:56:17.881Z,-1.01
2023-01-22T03:58:45.049Z,-0.90
2023-01-22T04:01:14.564Z,-0.89
2023-01-22T04:03:41.629Z,-0.88
2023-01-22T04:06:10.606Z,-0.84
2023-01-22T04:08:41.069Z,-0.82
2023-01-22T04:11:08.127Z,-0.86
2023-01-22T04:13:36.191Z,-0.88
2023-01-22T04:16:03.423Z,-0.95
2023-01-22T04:18:30.644Z,-0.85
2023-01-22T04:20:57.660Z,-0.81
2023-01-22T04:23:25.348Z,-1.08
2023-01-22T04:25:52.819Z,-1.04
2023-01-22T04:28:20.061Z,-1.12
2023-01-22T04:30:49.332Z,-1.06
2023-01-22T04:33:15.936Z,-1.05
2023-01-22T04:35:42.525Z,-1.14
2023-01-22T04:38:12.966Z,-1.23
2023-01-22T04:40:40.080Z,-1.08
2023-01-22T04:43:09.696Z,-1.20
2023-01-22T04:45:38.953Z,-1.20
2023-01-22T04:48:08.479Z,-1.30
2023-01-22T04:50:37.404Z,-1.28
2023-01-22T04:53:05.072Z,-1.25
2023-01-22T04:55:33.962Z,-1.15
2023-01-22T04:58:01.311Z,-1.12
2023-01-22T05:00:31.220Z,-1.15
2023-01-22T05:02:59.421Z,-1.17
2023-01-22T05:05:27.292Z,-1.10
2023-01-22T05:07:56.343Z,-1.12
2023-01-22T05:10:23.777Z,-1.21
2023-01-22T05:12:53.000Z,-1.16
2023-01-22T05:15:24.352Z,-1.17
2023-01-22T05:17:51.858Z,-1.22
2023-01-22T05:20:18.834Z,-1.05
2023-01-22T05:22:45.523Z,-1.17
2023-01-22T05:25:12.644Z,-1.17
2023-01-22T05:27:39.280Z,-1.31
2023-01-22T05:30:07.333Z,-1.33
2023-01-22T05:32:36.536Z,-1.31
2023-01-22T05:35:04.385Z,-1.22
2023-01-22T05:37:31.970Z,-1.18
2023-01-22T05:39:58.572Z,-1.26
2023-01-22T05:42:25.226Z,-1.42
2023-01-22T05:44:51.771Z,-1.43
2023-01-22T05:47:18.624Z,-1.25
2023-01-22T05:49:45.204Z,-1.20
2023-01-22T05:52:11.806Z,-1.14
2023-01-22T05:54:40.785Z,-1.15
2023-01-22T05:57:07.636Z,-1.08
2023-01-22T05:59:34.650Z,-1.20
2023-01-22T06:02:01.825Z,-1.29
2023-01-22T06:04:28.861Z,-1.25
2023-01-22T06:06:55.537Z,-1.17
2023-01-22T06:09:22.636Z,-1.23
2023-01-22T06:11:49.388Z,-1.14
2023-01-22T06:14:18.587Z,-1.05
2023-01-22T06:16:45.168Z,-0.99
2023-01-22T06:19:12.572Z,-0.95
2023-01-22T06:21:39.188Z,-1.07
2023-01-22T06:24:06.193Z,-1.01
2023-01-22T06:26:32.854Z,-1.06
2023-01-22T06:28:59.399Z,-1.00
2023-01-22T06:31:26.196Z,-1.02
2023-01-22T06:33:54.658Z,-1.07
2023-01-22T06:36:21.213Z,-1.01
2023-01-22T06:38:48.091Z,-0.95
2023-01-22T06:41:16.945Z,-0.92
2023-01-22T06:43:43.537Z,-0.99
2023-01-22T06:46:10.320Z,-1.04
2023-01-22T06:48:36.990Z,-0.98
2023-01-22T06:51:03.828Z,-1.05
2023-01-22T06:53:30.611Z,-0.94
2023-01-22T06:55:59.547Z,-1.02
2023-01-22T06:58:26.386Z,-0.84
2023-01-22T07:00:53.002Z,-0.81
2023-01-22T07:03:20.378Z,-0.88
2023-01-22T07:05:46.886Z,-0.96
2023-01-22T07:08:15.266Z,-0.95
2023-01-22T07:10:42.219Z,-0.92
2023-01-22T07:13:10.261Z,-1.00
2023-01-22T07:15:39.082Z,-1.05
2023-01-22T07:18:05.631Z,-1.13
2023-01-22T07:20:32.770Z,-1.19
2023-01-22T07:23:00.262Z,-1.21
2023-01-22T07:25:27.621Z,-1.00
2023-01-22T07:28:01.696Z,-1.08
2023-01-22T07:30:31.110Z,-0.99
2023-01-22T07:33:02.450Z,-1.14
2023-01-22T07:35:30.084Z,-1.14
2023-01-22T07:37:58.498Z,-1.05
2023-01-22T07:40:25.950Z,-1.01
2023-01-22T07:42:53.302Z,-0.91
2023-01-22T07:45:21.100Z,-0.84
2023-01-22T07:47:59.162Z,-0.79
2023-01-22T07:50:28.915Z,-0.82
2023-01-22T07:52:56.222Z,-0.78
2023-01-22T07:55:23.858Z,-0.71
2023-01-22T07:58:01.232Z,-0.49
2023-01-22T08:00:27.908Z,-0.68
2023-01-22T08:02:56.735Z,-0.71
2023-01-22T08:05:23.559Z,-0.52
2023-01-22T08:07:52.735Z,-0.53
2023-01-22T08:10:20.372Z,-0.54
2023-01-22T08:12:47.488Z,-0.54
2023-01-22T08:15:18.850Z,-0.38
2023-01-22T08:17:48.302Z,-0.43
2023-01-22T08:20:14.874Z,-0.36
2023-01-22T08:22:41.495Z,-0.29
2023-01-22T08:25:08.409Z,-0.28
2023-01-22T08:27:37.498Z,-0.40
2023-01-22T08:30:05.347Z,-0.32
2023-01-22T08:32:32.012Z,-0.09
2023-01-22T08:34:58.632Z,-0.06
2023-01-22T08:37:25.570Z,-0.01
2023-01-22T08:39:52.189Z,0.07
2023-01-22T08:42:18.939Z,0.01
2023-01-22T08:44:45.499Z,0.17
2023-01-22T08:47:12.496Z,0.10
2023-01-22T08:49:39.093Z,0.27
2023-01-22T08:52:06.134Z,0.13
2023-01-22T08:54:32.735Z,0.23
2023-01-22T08:56:59.408Z,0.04
2023-01-22T08:59:25.976Z,0.07
2023-01-22T09:01:55.104Z,0.03
2023-01-22T09:04:22.599Z,0.25
2023-01-22T09:06:49.156Z,0.50
2023-01-22T09:09:15.829Z,0.51
2023-01-22T09:11:42.426Z,0.31
2023-01-22T09:14:11.215Z,0.20
2023-01-22T09:16:37.921Z,0.05
2023-01-22T09:19:05.694Z,0.16
2023-01-22T09:21:33.837Z,0.29
2023-01-22T09:24:00.959Z,0.21
2023-01-22T09:26:27.574Z,0.42
2023-01-22T09:28:54.187Z,0.25
2023-01-22T09:31:20.889Z,0.23
2023-01-22T09:33:51.277Z,0.31
2023-01-22T09:36:18.115Z,0.55
2023-01-22T09:38:44.941Z,0.34
2023-01-22T09:41:20.449Z,0.36
2023-01-22T09:43:59.699Z,0.55
2023-01-22T09:46:43.361Z,0.60
2023-01-22T09:49:20.166Z,0.62
2023-01-22T09:51:58.626Z,0.52
2023-01-22T09:54:26.102Z,0.63
2023-01-22T09:56:57.095Z,0.88
2023-01-22T09:59:32.420Z,0.94
2023-01-22T10:02:11.232Z,0.79
2023-01-22T10:04:46.590Z,0.65
2023-01-22T10:07:31.007Z,0.73
2023-01-22T10:10:03.398Z,0.65
2023-01-22T10:12:32.191Z,0.81
2023-01-22T10:14:58.953Z,0.90
2023-01-22T10:17:32.721Z,0.90
2023-01-22T10:20:04.269Z,0.88
2023-01-22T10:22:31.070Z,0.84
2023-01-22T10:24:58.775Z,0.76
2023-01-22T10:27:36.973Z,0.80
2023-01-22T10:30:25.373Z,0.77
2023-01-22T10:33:04.369Z,0.88
2023-01-22T10:35:32.215Z,0.99
2023-01-22T10:38:00.854Z,0.87
2023-01-22T10:40:27.453Z,1.06
2023-01-22T10:43:04.029Z,1.16
2023-01-22T10:45:30.841Z,1.18
2023-01-22T10:48:27.044Z,1.30
2023-01-22T10:50:59.828Z,1.34
2023-01-22T10:53:33.480Z,1.14
2023-01-22T10:56:02.506Z,1.10
2023-01-22T10:58:36.675Z,1.15
2023-01-22T11:01:06.839Z,0.90
2023-01-22T11:03:36.750Z,1.05
2023-01-22T11:06:12.451Z,1.11
2023-01-22T11:08:51.202Z,1.17
2023-01-22T11:11:23.652Z,1.23
2023-01-22T11:14:18.358Z,1.02
2023-01-22T11:16:49.805Z,1.16
2023-01-22T11:19:36.108Z,1.20
2023-01-22T11:22:11.780Z,1.12
2023-01-22T11:24:47.136Z,1.34
2023-01-22T11:27:22.514Z,1.39
2023-01-22T11:30:07.929Z,1.20
2023-01-22T11:33:10.695Z,1.12
2023-01-22T11:36:08.799Z,1.02
2023-01-22T11:38:51.264Z,1.27
2023-01-22T11:41:27.339Z,1.23
2023-01-22T11:44:21.597Z,1.02
2023-01-22T11:47:03.282Z,1.15
2023-01-22T11:50:03.511Z,1.24
2023-01-22T11:53:02.570Z,0.89
2023-01-22T11:55:54.608Z,0.85
2023-01-22T11:58:35.523Z,0.96
2023-01-22T12:01:41.616Z,1.18
2023-01-22T12:04:35.809Z,1.07
2023-01-22T12:07:08.244Z,1.09
2023-01-22T12:10:08.763Z,1.14
2023-01-22T12:12:49.240Z,1.10
2023-01-22T12:15:32.031Z,1.14
2023-01-22T12:18:29.745Z,1.19
2023-01-22T12:21:21.999Z,1.11
2023-01-22T12:24:19.370Z,0.89
2023-01-22T12:26:56.674Z,0.95
2023-01-22T12:29:29.010Z,0.92
2023-01-22T12:32:09.006Z,1.03
2023-01-22T12:34:48.381Z,0.94
2023-01-22T12:37:19.032Z,1.01
2023-01-22T12:40:21.503Z,1.04
2023-01-22T12:43:00.423Z,0.88
2023-01-22T12:45:47.274Z,1.05
2023-01-22T12:48:35.095Z,0.97
2023-01-22T12:51:01.733Z,0.91
2023-01-22T12:53:39.110Z,0.90
2023-01-22T12:56:09.421Z,1.02
2023-01-22T12:58:39.794Z,0.93
2023-01-22T13:01:22.721Z,0.87
2023-01-22T13:04:01.594Z,0.99
2023-01-22T13:06:41.050Z,0.90
2023-01-22T13:09:24.673Z,0.83
2023-01-22T13:11:51.237Z,0.89
2023-01-22T13:14:19.739Z,1.02
2023-01-22T13:16:59.590Z,1.04
2023-01-22T13:19:42.520Z,1.02
2023-01-22T13:22:35.546Z,0.99
2023-01-22T13:25:02.321Z,1.04
2023-01-22T13:27:35.161Z,1.00
2023-01-22T13:30:14.662Z,1.00
2023-01-22T13:32:41.645Z,1.14
2023-01-22T13:35:13.255Z,1.25
2023-01-22T13:37:41.924Z,1.14
2023-01-22T13:40:23.433Z,1.07
2023-01-22T13:42:51.356Z,0.96
2023-01-22T13:45:33.137Z,1.04
2023-01-22T13:48:04.289Z,1.07
2023-01-22T13:50:31.955Z,1.15
2023-01-22T13:53:01.282Z,1.13
2023-01-22T13:55:28.909Z,1.31
2023-01-22T13:58:01.581Z,1.22
2023-01-22T14:00:39.567Z,1.26
2023-01-22T14:03:21.888Z,1.21
2023-01-22T14:05:50.230Z,1.35
2023-01-22T14:08:16.996Z,1.34
2023-01-22T14:10:43.761Z,1.23
2023-01-22T14:13:13.442Z,1.16
2023-01-22T14:15:41.383Z,1.17
2023-01-22T14:18:13.351Z,1.32
2023-01-22T14:20:41.656Z,1.17
2023-01-22T14:23:08.302Z,1.11
2023-01-22T14:25:44.026Z,1.19
2023-01-22T14:28:13.347Z,1.20
2023-01-22T14:30:42.242Z,1.13
2023-01-22T14:33:15.369Z,1.26
2023-01-22T14:35:42.001Z,1.12
2023-01-22T14:38:08.569Z,1.07
2023-01-22T14:40:35.266Z,1.27
2023-01-22T14:43:02.736Z,1.09
2023-01-22T14:45:29.752Z,1.16
2023-01-22T14:47:56.565Z,1.09
2023-01-22T14:50:24.024Z,1.18
2023-01-22T14:52:51.511Z,1.05
2023-01-22T14:55:19.327Z,1.12
2023-01-22T14:57:48.453Z,1.12
2023-01-22T15:00:17.620Z,1.08
2023-01-22T15:02:44.722Z,1.17
2023-01-22T15:05:14.547Z,1.16
2023-01-22T15:07:41.140Z,1.14
2023-01-22T15:10:08.552Z,1.12
2023-01-22T15:12:35.201Z,0.95
2023-01-22T15:15:01.961Z,0.96
2023-01-22T15:17:28.566Z,0.82
2023-01-22T15:19:55.242Z,0.78
2023-01-22T15:22:21.815Z,0.82
2023-01-22T15:24:48.605Z,0.72
2023-01-22T15:27:18.564Z,0.72
2023-01-22T15:29:46.385Z,0.79
2023-01-22T15:32:13.256Z,0.63
2023-01-22T15:34:40.055Z,0.69
2023-01-22T15:37:06.957Z,0.76
2023-01-22T15:39:33.634Z,0.64
2023-01-22T15:42:00.242Z,0.58
2023-01-22T15:44:26.826Z,0.54
2023-01-22T15:46:53.959Z,0.45
2023-01-22T15:49:20.539Z,0.61
2023-01-22T15:51:47.089Z,0.60
2023-01-22T15:54:15.659Z,0.54
2023-01-22T15:56:42.515Z,0.58
2023-01-22T15:59:11.591Z,0.62
2023-01-22T16:01:38.487Z,0.40
2023-01-22T16:04:06.344Z,0.30
2023-01-22T16:06:34.763Z,0.16
2023-01-22T16:09:03.116Z,0.18
2023-01-22T16:11:30.305Z,0.22
2023-01-22T16:13:59.135Z,0.14
2023-01-22T16:16:36.248Z,0.03
2023-01-22T16:19:05.017Z,0.06
2023-01-22T16:21:34.650Z,0.02
2023-01-22T16:24:04.761Z,0.08
2023-01-22T16:26:36.453Z,0.05
2023-01-22T16:29:04.874Z,-0.08
2023-01-22T16:31:37.632Z,-0.02
2023-01-22T16:34:15.656Z,-0.25
2023-01-22T16:36:45.662Z,-0.17
2023-01-22T16:39:23.397Z,-0.25
2023-01-22T16:41:51.361Z,0.04
2023-01-22T16:44:20.556Z,-0.15
2023-01-22T16:46:49.630Z,-0.16
2023-01-22T16:49:22.255Z,-0.13
2023-01-22T16:51:54.498Z,-0.22
2023-01-22T16:54:32.780Z,-0.27
2023-01-22T16:57:03.062Z,-0.27
2023-01-22T16:59:31.068Z,-0.28
2023-01-22T17:01:59.627Z,-0.30
2023-01-22T17:04:26.964Z,-0.31
2023-01-22T17:06:55.605Z,-0.32
2023-01-22T17:09:27.415Z,-0.36
2023-01-22T17:12:03.119Z,-0.10
2023-01-22T17:14:31.837Z,-0.32
2023-01-22T17:16:58.979Z,-0.21
2023-01-22T17:19:25.450Z,-0.37
2023-01-22T17:21:57.937Z,-0.47
2023-01-22T17:24:25.325Z,-0.24
2023-01-22T17:26:52.630Z,-0.23
2023-01-22T17:29:22.092Z,-0.16
2023-01-22T17:31:48.726Z,-0.17
2023-01-22T17:34:15.660Z,-0.14
2023-01-22T17:36:42.471Z,-0.22
2023-01-22T17:39:14.752Z,-0.32
2023-01-22T17:41:44.106Z,-0.17
2023-01-22T17:44:12.077Z,-0.22
2023-01-22T17:46:38.977Z,-0.35
2023-01-22T17:49:05.987Z,-0.32
2023-01-22T17:51:34.603Z,-0.37
2023-01-22T17:54:03.183Z,-0.25
2023-01-22T17:56:35.328Z,-0.21
2023-01-22T17:59:06.124Z,-0.39
2023-01-22T18:01:35.085Z,-0.50
2023-01-22T18:04:05.476Z,-0.44
2023-01-22T18:06:32.355Z,-0.50
2023-01-22T18:08:58.930Z,-0.40
2023-01-22T18:11:28.348Z,-0.41
2023-01-22T18:14:00.480Z,-0.38
2023-01-22T18:16:29.508Z,-0.42
2023-01-22T18:19:00.714Z,-0.42
2023-01-22T18:21:27.249Z,-0.45
2023-01-22T18:23:53.730Z,-0.46
2023-01-22T18:26:23.017Z,-0.53
2023-01-22T18:28:51.261Z,-0.54
2023-01-22T18:31:21.414Z,-0.50
2023-01-22T18:33:51.100Z,-0.45
2023-01-22T18:36:27.953Z,-0.39
2023-01-22T18:38:58.481Z,-0.51
2023-01-22T18:41:26.387Z,-0.54
2023-01-22T18:43:55.404Z,-0.47
2023-01-22T18:46:26.165Z,-0.39
2023-01-22T18:48:57.882Z,-0.32
2023-01-22T18:51:25.523Z,-0.33
2023-01-22T18:53:52.442Z,-0.34
2023-01-22T18:56:18.943Z,-0.38
2023-01-22T18:58:45.995Z,-0.47
2023-01-22T19:01:19.790Z,-0.46
2023-01-22T19:03:54.070Z,-0.40
2023-01-22T19:06:23.130Z,-0.39
2023-01-22T19:09:00.564Z,-0.42
2023-01-22T19:11:27.465Z,-0.30
2023-01-22T19:13:56.003Z,-0.28
2023-01-22T19:16:24.347Z,-0.38
2023-01-22T19:18:56.181Z,-0.34
2023-01-22T19:21:27.384Z,-0.37
2023-01-22T19:23:56.544Z,-0.40
2023-01-22T19:26:28.934Z,-0.49
2023-01-22T19:28:58.536Z,-0.43
2023-01-22T19:31:30.382Z,-0.40
2023-01-22T19:33:57.170Z,-0.33
2023-01-22T19:36:28.099Z,-0.37
2023-01-22T19:38:58.384Z,-0.38
2023-01-22T19:41:26.495Z,-0.37
2023-01-22T19:43:59.369Z,-0.36
2023-01-22T19:46:27.436Z,-0.34
2023-01-22T19:48:54.972Z,-0.26
2023-01-22T19:51:22.284Z,-0.29
2023-01-22T19:53:49.420Z,-0.13
2023-01-22T19:56:27.561Z,-0.29
2023-01-22T19:58:59.258Z,-0.23
2023-01-22T20:01:28.134Z,-0.45
2023-01-22T20:03:56.503Z,-0.47
2023-01-22T20:06:23.914Z,-0.44
2023-01-22T20:08:51.072Z,-0.55
2023-01-22T20:11:18.485Z,-0.63
2023-01-22T20:13:48.741Z,-0.77
2023-01-22T20:16:25.256Z,-0.84
2023-01-22T20:18:52.845Z,-0.83
2023-01-22T20:21:20.643Z,-0.80
2023-01-22T20:23:48.824Z,-0.95
2023-01-22T20:26:16.995Z,-0.87
2023-01-22T20:28:43.558Z,-0.91
2023-01-22T20:31:19.981Z,-0.92
2023-01-22T20:33:50.207Z,-1.10
2023-01-22T20:36:21.868Z,-1.07
2023-01-22T20:38:52.475Z,-1.05
2023-01-22T20:41:19.842Z,-1.20
2023-01-22T20:43:46.363Z,-1.30
2023-01-22T20:46:22.023Z,-1.21
2023-01-22T20:48:51.885Z,-1.29
2023-01-22T20:51:24.398Z,-1.21
2023-01-22T20:53:52.831Z,-1.35
2023-01-22T20:56:23.643Z,-1.55
2023-01-22T20:58:58.602Z,-1.57
2023-01-22T21:01:26.009Z,-1.65
2023-01-22T21:03:56.066Z,-1.63
2023-01-22T21:06:22.685Z,-1.82
2023-01-22T21:08:56.061Z,-1.63
2023-01-22T21:11:24.052Z,-1.83
2023-01-22T21:13:52.448Z,-1.81
2023-01-22T21:16:26.467Z,-1.79
2023-01-22T21:19:01.431Z,-1.70
2023-01-22T21:21:29.124Z,-1.67
2023-01-22T21:23:56.227Z,-1.60
2023-01-22T21:26:25.910Z,-1.61
2023-01-22T21:29:01.434Z,-1.68
2023-01-22T21:31:28.690Z,-1.71
2023-01-22T21:34:03.059Z,-2.11
2023-01-22T21:36:41.097Z,-2.09
2023-01-22T21:39:10.674Z,-2.12
2023-01-22T21:41:41.652Z,-2.19
2023-01-22T21:44:30.117Z,-2.08
2023-01-22T21:46:56.657Z,-2.10
2023-01-22T21:49:24.481Z,-2.16
2023-01-22T21:51:55.903Z,-2.30
2023-01-22T21:54:23.809Z,-2.37
2023-01-22T21:56:50.759Z,-2.47
2023-01-22T21:59:17.735Z,-2.50
2023-01-22T22:01:45.105Z,-2.55
2023-01-22T22:04:15.156Z,-2.70
2023-01-22T22:06:46.929Z,-2.68
2023-01-22T22:09:19.305Z,-2.62
2023-01-22T22:11:45.841Z,-2.74
2023-01-22T22:14:15.714Z,-2.62
2023-01-22T22:16:43.560Z,-2.75
2023-01-22T22:19:10.549Z,-2.75
2023-01-22T22:21:37.424Z,-2.81
2023-01-22T22:24:04.217Z,-2.73
2023-01-22T22:26:31.076Z,-2.40
2023-01-22T22:28:58.053Z,-2.37
2023-01-22T22:31:25.100Z,-2.49
2023-01-22T22:33:54.348Z,-2.52
2023-01-22T22:36:23.683Z,-2.55
2023-01-22T22:38:50.292Z,-2.51
2023-01-22T22:41:20.700Z,-2.43
2023-01-22T22:43:51.880Z,-2.46
2023-01-22T22:46:20.150Z,-2.39
2023-01-22T22:48:47.753Z,-2.42
2023-01-22T22:51:18.014Z,-2.49
2023-01-22T22:53:44.526Z,-2.53
2023-01-22T22:56:14.447Z,-2.49
2023-01-22T22:58:41.149Z,-2.73
2023-01-22T23:01:09.380Z,-2.60
2023-01-22T23:03:37.505Z,-2.67
2023-01-22T23:06:11.818Z,-2.69
2023-01-22T23:08:40.187Z,-2.60
2023-01-22T23:11:09.536Z,-2.60
2023-01-22T23:13:36.779Z,-2.56
2023-01-22T23:16:08.403Z,-2.51
2023-01-22T23:18:38.600Z,-2.40
2023-01-22T23:21:16.258Z,-2.45
2023-01-22T23:23:42.956Z,-2.40
2023-01-22T23:26:12.817Z,-2.53
2023-01-22T23:28:40.242Z,-2.52
2023-01-22T23:31:15.531Z,-2.42
2023-01-22T23:33:42.919Z,-2.37
2023-01-22T23:36:13.305Z,-2.52
2023-01-22T23:38:40.127Z,-2.41
2023-01-22T23:41:09.900Z,-2.52
2023-01-22T23:43:38.625Z,-2.51
2023-01-22T23:46:16.332Z,-2.57
2023-01-22T23:48:43.026Z,-2.69
2023-01-22T23:51:11.812Z,-2.57
2023-01-22T23:53:40.324Z,-2.65
2023-01-22T23:56:07.620Z,-2.58
2023-01-22T23:58:35.177Z,-2.53
